OHS weather

Sohar Airport
Sohar, Al Batinah Governorate, Oman

Public forecast

Using degrees Celsius for public forecast. Weather courtesy of forecast.io.

METAR (pilot weather report)

Closest report is Fujairah International Airport, 46.6 nm (86.3 km) NNW. Retrieved 2019/04/24 23:00 UTC (47 minutes ago):

OMFJ 242300Z 31023KT 8000 NSC 22/14 Q1011 RMK A2985

TAF (pilot weather forecast)

Retrieved 2019/04/24 18:00 UTC (6 hours ago):

TAF OOSH 241700Z 2418/2524 VRB02KT 8000 NSC BECMG 2506/2508 02012KT BECMG 2518/2520 VRB02KT